Time;durP1;ratioP1;P1;durP2;ratioP2;P2;SDS_P1;SDS_P2;PMS_P1;PMS_P2;Temp;Humidity;BMP_temperature;BMP_pressure;BME280_temperature;BME280_humidity;BME280_pressure;Samples;Min_cycle;Max_cycle;Signal;HPM_P1;HPM_P2
2022/08/08 00:00:59;176508.00;0.59;305.48;72926.00;0.24;126.82;;;;;22.30;1.00;;;;;;2272278;61;1095;-82
2022/08/08 00:03:38;174278.00;0.58;301.64;69900.00;0.23;121.59;;;;;22.50;1.00;;;;;;2272219;61;1919;-82
2022/08/08 00:06:12;246061.00;0.82;425.18;67629.00;0.23;117.66;;;;;22.50;1.00;;;;;;2272039;61;1721;-82
2022/08/08 00:08:48;174146.00;0.58;301.41;64909.00;0.22;112.96;;;;;23.00;1.00;;;;;;2272201;61;1139;-82
2022/08/08 00:11:24;174880.00;0.58;302.67;65370.00;0.22;113.76;;;;;23.20;1.00;;;;;;2272213;61;1079;-81
2022/08/08 00:14:03;217108.00;0.72;375.37;70280.00;0.23;122.24;;;;;23.10;1.00;;;;;;2272171;61;1388;-82
2022/08/08 00:16:38;200495.00;0.67;346.78;66149.00;0.22;115.11;;;;;22.90;1.00;;;;;;2272110;61;1729;-82
2022/08/08 00:19:20;222560.00;0.74;384.75;52494.00;0.17;91.50;;;;;22.70;1.00;;;;;;2272207;61;1020;-84
2022/08/08 00:21:55;208099.00;0.69;359.86;72492.00;0.24;126.07;;;;;22.80;1.00;;;;;;2272146;61;2034;-82
2022/08/08 00:24:29;165675.00;0.55;286.82;67316.00;0.22;117.12;;;;;22.60;1.00;;;;;;2272028;61;1978;-83
2022/08/08 00:27:08;175744.00;0.59;304.16;69935.00;0.23;121.65;;;;;22.50;1.00;;;;;;2272149;61;1121;-83
2022/08/08 00:29:44;265665.00;0.89;458.89;76093.00;0.25;132.29;;;;;22.20;1.00;;;;;;2272154;61;1125;-83
2022/08/08 00:32:15;89233.00;0.30;154.98;0.00;0.00;0.62;;;;;22.20;1.00;;;;;;2272134;61;1074;-82
2022/08/08 00:35:15;137631.00;0.46;238.49;0.00;0.00;0.62;;;;;22.70;1.00;;;;;;2272029;61;1466;-84
2022/08/08 00:37:57;0.00;0.00;0.62;0.00;0.00;0.62;;;;;23.00;1.00;;;;;;2272075;61;1248;-83
2022/08/08 00:40:50;16999.00;0.06;30.07;0.00;0.00;0.62;;;;;23.20;1.00;;;;;;2272037;61;1115;-83
2022/08/08 00:43:51;0.00;0.00;0.62;0.00;0.00;0.62;;;;;22.90;1.00;;;;;;2272725;61;1910;-83
2022/08/08 00:46:56;0.00;0.00;0.62;0.00;0.00;0.62;;;;;22.50;1.00;;;;;;2268012;61;1278;-83
2022/08/08 00:49:53;30316.00;0.10;53.13;0.00;0.00;0.62;;;;;22.30;1.00;;;;;;2266307;61;1171;-83
2022/08/08 00:52:42;175161.00;0.58;303.16;65019.00;0.22;113.15;;;;;22.20;1.00;;;;;;2272781;61;1118;-83
2022/08/08 00:55:33;0.00;0.00;0.62;0.00;0.00;0.62;;;;;21.80;1.00;;;;;;2272646;61;1944;-82
2022/08/08 00:58:40;331750.00;1.11;572.49;23454.00;0.08;41.25;;;;;21.60;1.00;;;;;;2270562;61;1174;-83
2022/08/08 01:01:16;0.00;0.00;0.62;0.00;0.00;0.62;;;;;21.90;1.00;;;;;;2272762;61;1097;-83
2022/08/08 01:04:38;0.00;0.00;0.62;0.00;0.00;0.62;;;;;22.10;1.00;;;;;;2272748;61;1911;-83
2022/08/08 01:07:53;0.00;0.00;0.62;0.00;0.00;0.62;;;;;21.90;1.00;;;;;;2272742;61;1005;-83
2022/08/08 01:10:51;150934.00;0.50;261.42;16334.00;0.05;28.92;;;;;22.20;1.00;;;;;;2272807;61;1168;-83
2022/08/08 01:13:54;0.00;0.00;0.62;0.00;0.00;0.62;;;;;22.20;1.00;;;;;;2266523;61;1177;-83
2022/08/08 01:16:54;0.00;0.00;0.62;0.00;0.00;0.62;;;;;22.10;1.00;;;;;;2272794;61;1117;-82
2022/08/08 01:19:58;54967.00;0.18;95.78;0.00;0.00;0.62;;;;;22.20;1.00;;;;;;2272081;61;1638;-83
2022/08/08 01:23:03;29547.00;0.10;51.80;0.00;0.00;0.62;;;;;22.20;1.00;;;;;;2272736;61;1184;-83
2022/08/08 01:26:05;0.00;0.00;0.62;0.00;0.00;0.62;;;;;22.20;1.00;;;;;;2266423;61;1989;-82
2022/08/08 01:29:19;198050.00;0.66;342.57;65062.00;0.22;113.23;;;;;21.90;1.00;;;;;;2272644;61;1129;-83
2022/08/08 01:32:32;0.00;0.00;0.62;0.00;0.00;0.62;;;;;21.70;1.00;;;;;;2252197;61;1076;-82
2022/08/08 01:35:42;0.00;0.00;0.62;0.00;0.00;0.62;;;;;21.60;1.00;;;;;;2272582;61;1532;-82
2022/08/08 01:38:42;0.00;0.00;0.62;0.00;0.00;0.62;;;;;21.50;1.00;;;;;;2263117;61;1323;-83
2022/08/08 01:41:23;0.00;0.00;0.62;0.00;0.00;0.62;;;;;21.60;1.00;;;;;;2272608;61;1036;-82
2022/08/08 01:44:01;0.00;0.00;0.62;0.00;0.00;0.62;;;;;21.40;1.00;;;;;;2272592;61;1985;-83
2022/08/08 01:46:43;0.00;0.00;0.62;0.00;0.00;0.62;;;;;21.60;1.00;;;;;;2272611;61;1039;-83
2022/08/08 01:49:18;209909.00;0.70;362.98;76612.00;0.26;133.18;;;;;21.40;1.00;;;;;;2272616;61;1108;-82
2022/08/08 01:51:58;15076.00;0.05;26.74;0.00;0.00;0.62;;;;;21.70;1.00;;;;;;2272550;61;1122;-83
2022/08/08 01:54:47;0.00;0.00;0.62;0.00;0.00;0.62;;;;;21.50;1.00;;;;;;2272279;61;1533;-83
2022/08/08 01:57:26;4507.00;0.02;8.43;0.00;0.00;0.62;;;;;21.60;1.00;;;;;;2272475;61;996;-83
2022/08/08 02:00:07;19569.00;0.07;34.52;0.00;0.00;0.62;;;;;21.40;1.00;;;;;;2272511;61;933;-81
2022/08/08 02:02:52;0.00;0.00;0.62;0.00;0.00;0.62;;;;;21.70;1.00;;;;;;2272574;61;1031;-84
2022/08/08 02:05:32;0.00;0.00;0.62;0.00;0.00;0.62;;;;;21.80;1.00;;;;;;2272515;61;1991;-83
2022/08/08 02:08:11;0.00;0.00;0.62;0.00;0.00;0.62;;;;;21.80;1.00;;;;;;2272549;61;1145;-82
2022/08/08 02:10:53;18929.00;0.06;33.42;0.00;0.00;0.62;;;;;21.30;1.00;;;;;;2272543;61;1172;-82
2022/08/08 02:13:31;22197.00;0.07;39.07;0.00;0.00;0.62;;;;;21.50;1.00;;;;;;2272482;61;1068;-82
2022/08/08 02:16:11;11312.00;0.04;20.22;0.00;0.00;0.62;;;;;21.40;1.00;;;;;;2272524;61;1383;-81
2022/08/08 02:18:43;0.00;0.00;0.62;0.00;0.00;0.62;;;;;21.20;1.00;;;;;;2272482;61;1082;-83
2022/08/08 02:24:18;101093.00;0.34;175.46;0.00;0.00;0.62;;;;;21.40;1.00;;;;;;2272490;61;1921;-82
2022/08/08 02:26:51;0.00;0.00;0.62;0.00;0.00;0.62;;;;;21.60;1.00;;;;;;2272555;61;1008;-83
2022/08/08 02:29:38;139068.00;0.46;240.96;28302.00;0.09;49.64;;;;;21.50;1.00;;;;;;2272549;61;1126;-83
2022/08/08 02:32:38;0.00;0.00;0.62;0.00;0.00;0.62;;;;;21.50;1.00;;;;;;2272489;61;969;-83
2022/08/08 02:35:37;173741.00;0.58;300.71;69720.00;0.23;121.28;;;;;21.80;1.00;;;;;;2271273;61;1417;-82
2022/08/08 02:38:38;184309.00;0.61;318.91;75917.00;0.25;131.98;;;;;22.20;1.00;;;;;;2272472;61;1063;-84
2022/08/08 02:41:47;67607.00;0.23;117.63;0.00;0.00;0.62;;;;;22.30;1.00;;;;;;2272383;61;2253;-84
2022/08/08 02:44:55;296157.00;0.99;511.31;80272.00;0.27;139.51;;;;;22.20;1.00;;;;;;2272410;61;2014;-82
2022/08/08 02:47:58;0.00;0.00;0.62;0.00;0.00;0.62;;;;;21.80;1.00;;;;;;2272438;61;1060;-83
2022/08/08 02:51:05;12325.00;0.04;21.98;0.00;0.00;0.62;;;;;21.60;1.00;;;;;;2268751;61;1067;-83
2022/08/08 02:54:02;190376.00;0.63;329.36;1264.00;0.00;2.81;;;;;21.50;1.00;;;;;;2272165;61;1788;-83
2022/08/08 02:57:03;77473.00;0.26;134.67;0.00;0.00;0.62;;;;;21.70;1.00;;;;;;2270447;61;1179;-82
2022/08/08 03:00:15;0.00;0.00;0.62;0.00;0.00;0.62;;;;;21.80;1.00;;;;;;2272340;61;1127;-82
2022/08/08 03:03:12;26030.00;0.09;45.71;0.00;0.00;0.62;;;;;21.80;1.00;;;;;;2272451;61;1122;-83
2022/08/08 03:06:17;0.00;0.00;0.62;0.00;0.00;0.62;;;;;21.60;1.00;;;;;;2272297;61;1990;-83
2022/08/08 03:09:26;26794.00;0.09;47.03;0.00;0.00;0.62;;;;;21.20;1.00;;;;;;2265925;61;1469;-81
2022/08/08 03:12:44;42134.00;0.14;73.58;0.00;0.00;0.62;;;;;21.30;1.00;;;;;;2272400;61;1158;-85
2022/08/08 03:15:44;0.00;0.00;0.62;0.00;0.00;0.62;;;;;21.20;1.00;;;;;;2272340;61;1323;-84
2022/08/08 03:18:16;37488.00;0.12;65.54;0.00;0.00;0.62;;;;;21.40;1.00;;;;;;2272430;61;942;-83
2022/08/08 03:20:44;33597.00;0.11;58.81;0.00;0.00;0.62;;;;;21.20;1.00;;;;;;2272347;61;1119;-83
2022/08/08 03:23:13;64507.00;0.22;112.27;0.00;0.00;0.62;;;;;20.90;1.00;;;;;;2272365;61;1079;-85
2022/08/08 03:25:41;121525.00;0.41;210.71;0.00;0.00;0.62;;;;;20.80;1.00;;;;;;2272108;61;1934;-84
2022/08/08 03:28:15;170252.00;0.57;294.70;0.00;0.00;0.62;;;;;20.90;1.00;;;;;;2272290;61;1703;-82
2022/08/08 03:30:44;58527.00;0.20;101.93;0.00;0.00;0.62;;;;;20.70;1.00;;;;;;2272386;61;1031;-82
2022/08/08 03:33:19;135146.00;0.45;234.20;0.00;0.00;0.62;;;;;20.60;1.00;;;;;;2272273;61;1107;-85
2022/08/08 03:35:48;17600.00;0.06;31.11;0.00;0.00;0.62;;;;;20.80;1.00;;;;;;2272199;61;1426;-83
2022/08/08 03:38:20;85409.00;0.28;148.38;0.00;0.00;0.62;;;;;21.10;1.00;;;;;;2272159;61;1666;-85
2022/08/08 03:40:51;0.00;0.00;0.62;0.00;0.00;0.62;;;;;21.30;1.00;;;;;;2272271;61;1079;-84
2022/08/08 03:43:18;343826.00;1.15;593.25;142304.00;0.47;246.54;;;;;21.00;1.00;;;;;;2272251;61;1007;-84
2022/08/08 03:45:45;121161.00;0.40;210.09;0.00;0.00;0.62;;;;;21.00;1.00;;;;;;2272199;61;2013;-82
2022/08/08 03:48:12;61659.00;0.21;107.34;0.00;0.00;0.62;;;;;21.30;1.00;;;;;;2272281;61;1094;-84
2022/08/08 03:50:45;0.00;0.00;0.62;0.00;0.00;0.62;;;;;21.30;1.00;;;;;;2272299;61;1094;-83
2022/08/08 03:53:14;123118.00;0.41;213.46;18774.00;0.06;33.15;;;;;20.90;1.00;;;;;;2272246;61;1120;-83
2022/08/08 03:55:44;40291.00;0.13;70.39;0.00;0.00;0.62;;;;;20.90;1.00;;;;;;2271962;61;1356;-82
2022/08/08 03:58:18;37961.00;0.13;66.36;0.00;0.00;0.62;;;;;21.00;1.00;;;;;;2272167;61;1005;-81
2022/08/08 04:00:50;0.00;0.00;0.62;0.00;0.00;0.62;;;;;21.10;1.00;;;;;;2272159;61;1122;-82
2022/08/08 04:03:17;0.00;0.00;0.62;0.00;0.00;0.62;;;;;21.50;1.00;;;;;;2272264;61;1141;-84
2022/08/08 04:05:44;15455.00;0.05;27.40;0.00;0.00;0.62;;;;;21.70;1.00;;;;;;2272174;61;2006;-82
2022/08/08 04:08:18;48729.00;0.16;84.99;0.00;0.00;0.62;;;;;21.60;1.00;;;;;;2272245;61;1063;-83
2022/08/08 04:10:49;0.00;0.00;0.62;0.00;0.00;0.62;;;;;21.50;1.00;;;;;;2272153;61;999;-82
2022/08/08 04:13:16;0.00;0.00;0.62;0.00;0.00;0.62;;;;;21.50;1.00;;;;;;2272199;61;1364;-82
2022/08/08 04:15:44;10199.00;0.03;18.29;0.00;0.00;0.62;;;;;21.50;1.00;;;;;;2272182;61;1339;-83
2022/08/08 04:18:11;0.00;0.00;0.62;0.00;0.00;0.62;;;;;21.40;1.00;;;;;;2272834;61;1095;-82
2022/08/08 04:20:38;0.00;0.00;0.62;0.00;0.00;0.62;;;;;21.20;1.00;;;;;;2272900;61;1026;-82
2022/08/08 04:23:06;0.00;0.00;0.62;0.00;0.00;0.62;;;;;21.40;1.00;;;;;;2272931;61;1153;-82
2022/08/08 04:25:34;6969.00;0.02;12.70;0.00;0.00;0.62;;;;;21.40;1.00;;;;;;2272843;61;1994;-82
2022/08/08 04:28:02;0.00;0.00;0.62;0.00;0.00;0.62;;;;;21.30;1.00;;;;;;2272930;61;1046;-83
2022/08/08 04:30:29;0.00;0.00;0.62;0.00;0.00;0.62;;;;;21.00;1.00;;;;;;2272858;61;1094;-83
2022/08/08 04:32:56;12613.00;0.04;22.48;0.00;0.00;0.62;;;;;21.20;1.00;;;;;;2272837;61;1130;-82
2022/08/08 04:35:23;0.00;0.00;0.62;0.00;0.00;0.62;;;;;21.10;1.00;;;;;;2272837;61;1345;-82
2022/08/08 04:37:50;8507.00;0.03;15.36;0.00;0.00;0.62;;;;;21.20;1.00;;;;;;2272820;61;1091;-83
2022/08/08 04:40:17;0.00;0.00;0.62;0.00;0.00;0.62;;;;;21.20;1.00;;;;;;2272806;61;1111;-83
2022/08/08 04:42:44;0.00;0.00;0.62;0.00;0.00;0.62;;;;;21.40;1.00;;;;;;2272890;61;1286;-83
2022/08/08 04:45:13;12202.00;0.04;21.76;0.00;0.00;0.62;;;;;21.10;1.00;;;;;;2272767;61;2016;-83
2022/08/08 04:47:40;0.00;0.00;0.62;0.00;0.00;0.62;;;;;21.00;1.00;;;;;;2272846;61;1092;-82
2022/08/08 04:50:08;0.00;0.00;0.62;0.00;0.00;0.62;;;;;21.40;1.00;;;;;;2272802;61;1063;-82
2022/08/08 04:52:35;0.00;0.00;0.62;0.00;0.00;0.62;;;;;21.80;1.00;;;;;;2272776;61;1135;-82
2022/08/08 04:55:02;0.00;0.00;0.62;0.00;0.00;0.62;;;;;21.90;1.00;;;;;;2272811;61;1336;-83
2022/08/08 04:57:29;40735.00;0.14;71.16;0.00;0.00;0.62;;;;;22.10;1.00;;;;;;2272771;61;1109;-84
2022/08/08 04:59:56;0.00;0.00;0.62;0.00;0.00;0.62;;;;;21.60;1.00;;;;;;2272790;61;1024;-84
2022/08/08 05:02:24;0.00;0.00;0.62;0.00;0.00;0.62;;;;;21.30;1.00;;;;;;2272787;61;1126;-84
2022/08/08 05:04:51;0.00;0.00;0.62;0.00;0.00;0.62;;;;;21.30;1.00;;;;;;2272684;61;1996;-84
2022/08/08 05:07:18;0.00;0.00;0.62;0.00;0.00;0.62;;;;;21.20;1.00;;;;;;2272753;61;1086;-83
2022/08/08 05:09:45;30506.00;0.10;53.46;0.00;0.00;0.62;;;;;21.60;1.00;;;;;;2272761;61;1087;-83
2022/08/08 05:12:12;37162.00;0.12;64.98;0.00;0.00;0.62;;;;;21.80;1.00;;;;;;2272150;61;1159;-85
2022/08/08 05:14:38;0.00;0.00;0.62;0.00;0.00;0.62;;;;;21.50;1.00;;;;;;2271959;61;1320;-83
2022/08/08 05:17:05;0.00;0.00;0.62;0.00;0.00;0.62;;;;;20.80;1.00;;;;;;2272150;61;1146;-83
2022/08/08 05:19:36;238535.00;0.80;412.23;78752.00;0.26;136.88;;;;;20.30;1.00;;;;;;2272231;61;1144;-82
2022/08/08 05:22:04;0.00;0.00;0.62;0.00;0.00;0.62;;;;;20.00;1.00;;;;;;2272603;61;2249;-83
2022/08/08 05:24:31;176382.00;0.59;305.26;30516.00;0.10;53.48;;;;;19.90;1.00;;;;;;2272571;61;1910;-82
2022/08/08 05:26:58;213679.00;0.71;369.47;53651.00;0.18;93.50;;;;;19.80;1.00;;;;;;2272627;61;2572;-83
2022/08/08 05:29:26;0.00;0.00;0.62;0.00;0.00;0.62;;;;;19.70;1.00;;;;;;2272655;61;1121;-82
2022/08/08 05:31:53;1001.00;0.00;2.36;0.00;0.00;0.62;;;;;19.80;1.00;;;;;;2272674;61;1086;-83
2022/08/08 05:34:25;6586.00;0.02;12.03;0.00;0.00;0.62;;;;;19.80;1.00;;;;;;2272630;61;1418;-83
2022/08/08 05:36:54;0.00;0.00;0.62;0.00;0.00;0.62;;;;;19.90;1.00;;;;;;2272638;61;1084;-82
2022/08/08 05:39:24;0.00;0.00;0.62;0.00;0.00;0.62;;;;;20.00;1.00;;;;;;2272565;61;1072;-84
2022/08/08 05:41:52;0.00;0.00;0.62;0.00;0.00;0.62;;;;;20.70;1.00;;;;;;2272593;61;2429;-84
2022/08/08 05:44:24;0.00;0.00;0.62;0.00;0.00;0.62;;;;;22.10;1.00;;;;;;2272568;61;1467;-82
2022/08/08 05:46:53;0.00;0.00;0.62;0.00;0.00;0.62;;;;;23.60;1.00;;;;;;2272655;61;2002;-83
2022/08/08 05:49:21;76808.00;0.26;133.52;0.00;0.00;0.62;;;;;25.20;1.00;;;;;;2272507;61;1050;-83
2022/08/08 05:51:49;0.00;0.00;0.62;0.00;0.00;0.62;;;;;26.70;1.00;;;;;;2272609;61;1106;-84
2022/08/08 05:54:18;0.00;0.00;0.62;0.00;0.00;0.62;;;;;27.40;1.00;;;;;;2272524;61;1387;-83
2022/08/08 05:56:45;0.00;0.00;0.62;0.00;0.00;0.62;;;;;28.70;1.00;;;;;;2272575;61;1223;-84
2022/08/08 05:59:18;0.00;0.00;0.62;0.00;0.00;0.62;;;;;28.90;1.00;;;;;;2272611;61;1116;-85
2022/08/08 06:01:54;0.00;0.00;0.62;0.00;0.00;0.62;;;;;29.90;1.00;;;;;;2272573;61;1029;-84
2022/08/08 06:04:26;0.00;0.00;0.62;0.00;0.00;0.62;;;;;30.80;1.00;;;;;;2272508;61;1349;-84
2022/08/08 06:06:54;0.00;0.00;0.62;0.00;0.00;0.62;;;;;31.60;1.00;;;;;;2272519;61;1982;-85
2022/08/08 06:09:28;0.00;0.00;0.62;0.00;0.00;0.62;;;;;31.80;1.00;;;;;;2272446;61;1113;-84
2022/08/08 06:12:00;0.00;0.00;0.62;0.00;0.00;0.62;;;;;32.00;1.00;;;;;;2272383;61;1192;-83
2022/08/08 06:14:28;4212.00;0.01;7.92;0.00;0.00;0.62;;;;;32.20;1.00;;;;;;2272535;61;1461;-83
2022/08/08 06:16:59;0.00;0.00;0.62;0.00;0.00;0.62;;;;;32.70;1.00;;;;;;2272391;61;1666;-82
2022/08/08 06:19:27;0.00;0.00;0.62;0.00;0.00;0.62;;;;;33.10;1.00;;;;;;2272553;61;1035;-82
2022/08/08 06:21:55;22887.00;0.08;40.27;0.00;0.00;0.62;;;;;33.30;1.00;;;;;;2272485;61;1115;-83
2022/08/08 06:24:23;108559.00;0.36;188.34;43604.00;0.15;76.12;;;;;33.60;1.00;;;;;;2272481;61;1371;-83
2022/08/08 06:26:57;71080.00;0.24;123.63;0.00;0.00;0.62;;;;;33.40;1.00;;;;;;2272418;61;2016;-83
2022/08/08 06:29:33;0.00;0.00;0.62;0.00;0.00;0.62;;;;;34.30;1.00;;;;;;2272459;61;1103;-85
2022/08/08 06:32:03;0.00;0.00;0.62;0.00;0.00;0.62;;;;;34.90;1.00;;;;;;2272458;61;1043;-83
2022/08/08 06:34:35;0.00;0.00;0.62;0.00;0.00;0.62;;;;;34.10;1.00;;;;;;2272400;61;1277;-83
2022/08/08 06:37:04;75836.00;0.25;131.84;0.00;0.00;0.62;;;;;34.30;1.00;;;;;;2272408;61;1209;-82
2022/08/08 06:39:34;0.00;0.00;0.62;0.00;0.00;0.62;;;;;34.60;1.00;;;;;;2272197;61;993;-84
2022/08/08 06:42:02;0.00;0.00;0.62;0.00;0.00;0.62;;;;;34.00;1.00;;;;;;2272431;61;1113;-83
2022/08/08 06:44:29;0.00;0.00;0.62;0.00;0.00;0.62;;;;;34.70;1.00;;;;;;2272358;61;1267;-83
2022/08/08 06:46:58;0.00;0.00;0.62;0.00;0.00;0.62;;;;;34.80;1.00;;;;;;2272384;61;1927;-83
2022/08/08 06:49:24;0.00;0.00;0.62;0.00;0.00;0.62;;;;;36.10;1.00;;;;;;2272396;61;1114;-82
2022/08/08 06:51:52;0.00;0.00;0.62;0.00;0.00;0.62;;;;;35.90;1.00;;;;;;2272378;61;1078;-84
2022/08/08 06:54:21;0.00;0.00;0.62;0.00;0.00;0.62;;;;;35.70;1.00;;;;;;2272333;61;1364;-83
2022/08/08 06:56:50;40297.00;0.13;70.40;0.00;0.00;0.62;;;;;36.00;1.00;;;;;;2272382;61;1800;-83
2022/08/08 06:59:16;0.00;0.00;0.62;0.00;0.00;0.62;;;;;35.10;1.00;;;;;;2272402;61;1150;-83
2022/08/08 07:01:45;0.00;0.00;0.62;0.00;0.00;0.62;;;;;35.60;1.00;;;;;;2272378;61;1001;-84
2022/08/08 07:04:19;0.00;0.00;0.62;0.00;0.00;0.62;;;;;36.20;1.00;;;;;;2272325;61;1328;-84
2022/08/08 07:06:54;0.00;0.00;0.62;0.00;0.00;0.62;;;;;36.20;1.00;;;;;;2272356;61;1915;-83
2022/08/08 07:09:27;134428.00;0.45;232.96;0.00;0.00;0.62;;;;;36.30;1.00;;;;;;2272327;61;1074;-83
2022/08/08 07:11:58;0.00;0.00;0.62;0.00;0.00;0.62;;;;;36.00;1.00;;;;;;2272381;61;1075;-83
2022/08/08 07:14:30;0.00;0.00;0.62;0.00;0.00;0.62;;;;;35.70;1.00;;;;;;2272374;61;1356;-83
2022/08/08 07:17:03;0.00;0.00;0.62;0.00;0.00;0.62;;;;;35.70;1.00;;;;;;2272315;61;1094;-84
2022/08/08 07:19:39;0.00;0.00;0.62;0.00;0.00;0.62;;;;;36.20;1.00;;;;;;2272293;61;1122;-82
2022/08/08 07:22:08;23743.00;0.08;41.75;0.00;0.00;0.62;;;;;36.10;1.00;;;;;;2272268;61;1072;-84
2022/08/08 07:24:43;41233.00;0.14;72.02;0.00;0.00;0.62;;;;;35.70;1.00;;;;;;2272345;61;1382;-83
2022/08/08 07:27:14;188963.00;0.63;326.92;41940.00;0.14;73.24;;;;;36.60;1.00;;;;;;2272325;61;1922;-84
2022/08/08 07:29:42;0.00;0.00;0.62;0.00;0.00;0.62;;;;;36.80;1.00;;;;;;2272313;61;1110;-84
2022/08/08 07:32:11;0.00;0.00;0.62;0.00;0.00;0.62;;;;;35.60;1.00;;;;;;2272309;61;1047;-84
2022/08/08 07:34:37;73066.00;0.24;127.06;0.00;0.00;0.62;;;;;36.30;1.00;;;;;;2272250;61;1259;-83
2022/08/08 07:37:05;300650.00;1.00;519.04;22166.00;0.07;39.02;;;;;37.30;1.00;;;;;;2272312;61;1107;-82
2022/08/08 07:39:34;418916.00;1.40;722.33;0.00;0.00;0.62;;;;;36.60;1.00;;;;;;2272264;61;1156;-83
2022/08/08 07:42:01;696307.00;2.32;1200.84;4065.00;0.01;7.67;;;;;36.30;1.00;;;;;;2272293;61;1087;-84
2022/08/08 07:44:30;688463.00;2.29;1187.24;35917.00;0.12;62.82;;;;;36.30;1.00;;;;;;2272238;61;1362;-83
2022/08/08 07:46:57;529240.00;1.76;912.18;0.00;0.00;0.62;;;;;36.90;1.00;;;;;;2272234;61;2058;-84
2022/08/08 07:49:24;492267.00;1.64;848.51;44341.00;0.15;77.40;;;;;37.50;1.00;;;;;;2272269;61;1138;-83
2022/08/08 07:51:51;653771.00;2.18;1127.16;0.00;0.00;0.62;;;;;36.90;1.00;;;;;;2272005;61;1138;-83
2022/08/08 07:54:29;492685.00;1.64;849.23;78016.00;0.26;135.61;;;;;36.80;1.00;;;;;;2272194;61;1358;-83
2022/08/08 07:57:09;608697.00;2.03;1049.24;15220.00;0.05;26.99;;;;;36.90;1.00;;;;;;2272218;61;1080;-83
2022/08/08 07:59:46;495545.00;1.65;854.15;148.00;0.00;0.88;;;;;36.80;1.00;;;;;;2272144;61;1126;-84
2022/08/08 08:02:21;450964.00;1.50;777.44;2964.00;0.01;5.76;;;;;36.60;1.00;;;;;;2271978;61;2251;-83
2022/08/08 08:04:53;936885.00;3.12;1621.00;0.00;0.00;0.62;;;;;36.60;1.00;;;;;;2271982;61;1369;-83
2022/08/08 08:07:22;574923.00;1.92;990.94;37965.00;0.13;66.37;;;;;37.00;1.00;;;;;;2272070;61;2005;-83
2022/08/08 08:09:49;579154.00;1.93;998.24;86967.00;0.29;151.07;;;;;36.40;1.00;;;;;;2272184;61;1111;-83
2022/08/08 08:12:20;770360.00;2.57;1329.48;65473.00;0.22;113.94;;;;;36.50;1.00;;;;;;2272064;61;1135;-84
2022/08/08 08:14:57;568916.00;1.90;980.58;83001.00;0.28;144.22;;;;;36.70;1.00;;;;;;2271766;61;2230;-83
2022/08/08 08:17:26;756131.00;2.52;1304.72;126131.00;0.42;218.66;;;;;35.60;1.00;;;;;;2271980;61;1059;-82
2022/08/08 08:19:58;118836224.00;396.12;67981280.00;81648.00;0.27;141.88;;;;;35.60;1.00;;;;;;2272040;61;1055;-83
2022/08/08 08:22:25;674513.00;2.25;1163.07;155337.00;0.52;269.00;;;;;35.80;1.00;;;;;;2272091;61;964;-83
2022/08/08 08:24:51;243563.00;0.81;420.88;52771.00;0.18;91.98;;;;;36.50;1.00;;;;;;2272072;61;1275;-83
2022/08/08 08:27:20;199727.00;0.67;345.45;54386.00;0.18;94.77;;;;;37.10;1.00;;;;;;2272114;61;1928;-84
2022/08/08 08:29:48;199375.00;0.66;344.85;59503.00;0.20;103.62;;;;;37.20;1.00;;;;;;2272132;61;1101;-84
2022/08/08 08:32:15;368530.00;1.23;635.71;102057.00;0.34;177.12;;;;;37.40;1.00;;;;;;2272140;61;1063;-84
2022/08/08 08:34:42;567247.00;1.89;977.70;205915.00;0.69;356.10;;;;;37.70;1.00;;;;;;2272004;61;1271;-83
2022/08/08 08:37:09;404554.00;1.35;697.63;84911.00;0.28;147.52;;;;;36.70;1.00;;;;;;2271925;61;1438;-83
2022/08/08 08:39:37;171759.00;0.57;297.30;61571.00;0.21;107.19;;;;;36.10;1.00;;;;;;2272001;61;1191;-83
2022/08/08 08:42:06;209236.00;0.70;361.82;59643.00;0.20;103.86;;;;;36.20;1.00;;;;;;2272047;61;1061;-82
2022/08/08 08:44:33;167791.00;0.56;290.46;50779.00;0.17;88.53;;;;;35.80;1.00;;;;;;2272005;61;1302;-83
2022/08/08 08:47:03;162940.00;0.54;282.10;55690.00;0.19;97.03;;;;;36.10;1.00;;;;;;2271973;61;1912;-83
2022/08/08 08:49:30;237932.00;0.79;411.19;57334.00;0.19;99.87;;;;;36.50;1.00;;;;;;2272101;61;1134;-83
2022/08/08 08:52:01;0.00;0.00;0.62;0.00;0.00;0.62;;;;;36.70;1.00;;;;;;2272102;61;1126;-83
2022/08/08 08:54:34;170551.00;0.57;295.22;59141.00;0.20;102.99;;;;;36.00;1.00;;;;;;2271948;61;1422;-84
2022/08/08 08:57:05;167823.00;0.56;290.52;61177.00;0.20;106.51;;;;;35.00;1.00;;;;;;2272012;61;999;-83
2022/08/08 08:59:39;178651.00;0.60;309.17;57012.00;0.19;99.31;;;;;34.30;1.00;;;;;;2272068;61;1308;-82
2022/08/08 09:02:18;234703.00;0.78;405.64;66341.00;0.22;115.44;;;;;33.70;1.00;;;;;;2272010;61;1063;-82
2022/08/08 09:04:48;171278.00;0.57;296.47;57747.00;0.19;100.58;;;;;34.00;1.00;;;;;;2272695;61;1333;-83
2022/08/08 09:07:19;237728.00;0.79;410.84;54163.00;0.18;94.39;;;;;34.20;1.00;;;;;;2272669;61;1915;-84
2022/08/08 09:09:50;269154.00;0.90;464.89;56142.00;0.19;97.81;;;;;34.50;1.00;;;;;;2272734;61;1031;-83
2022/08/08 09:12:19;254612.00;0.85;439.88;47147.00;0.16;82.25;;;;;33.60;1.00;;;;;;2272675;61;1094;-83
2022/08/08 09:14:47;332900.00;1.11;574.47;57117.00;0.19;99.49;;;;;33.60;1.00;;;;;;2272789;61;1273;-83
2022/08/08 09:17:16;490699.00;1.64;845.81;90266.00;0.30;156.77;;;;;32.20;1.00;;;;;;2272730;61;984;-84
2022/08/08 09:19:44;362986.00;1.21;626.18;61783.00;0.21;107.56;;;;;31.40;1.00;;;;;;2272708;61;929;-84
2022/08/08 09:22:13;382961.00;1.28;660.52;62940.00;0.21;109.56;;;;;30.40;1.00;;;;;;2272600;61;1598;-84
2022/08/08 09:24:41;418608.00;1.40;721.80;71923.00;0.24;125.08;;;;;30.40;1.00;;;;;;2272698;61;1273;-84
2022/08/08 09:27:10;457885.00;1.53;789.35;60948.00;0.20;106.12;;;;;30.60;1.00;;;;;;2272646;61;1994;-84
2022/08/08 09:29:50;907829.00;3.03;1569.87;130756.00;0.44;226.63;;;;;30.90;1.00;;;;;;2272751;61;1073;-85
2022/08/08 09:32:34;613877.00;2.05;1058.19;34642.00;0.12;60.62;;;;;31.10;1.00;;;;;;2272684;61;2172;-84
2022/08/08 09:35:03;762117.00;2.54;1315.13;45573.00;0.15;79.53;;;;;30.70;1.00;;;;;;2272631;61;1452;-83
2022/08/08 09:37:35;771462.00;2.57;1331.40;59813.00;0.20;104.15;;;;;29.90;1.00;;;;;;2272665;61;1649;-84
2022/08/08 09:40:05;406820.00;1.36;701.53;23502.00;0.08;41.33;;;;;29.80;1.00;;;;;;2272621;61;1169;-85
2022/08/08 09:42:35;617845.00;2.06;1065.04;25385.00;0.08;44.59;;;;;30.20;1.00;;;;;;2272739;61;1068;-85
2022/08/08 09:45:08;863223.00;2.88;1491.62;33770.00;0.11;59.11;;;;;30.30;1.00;;;;;;2272642;61;1371;-83
2022/08/08 09:47:38;666839.00;2.22;1149.78;26763.00;0.09;46.98;;;;;30.10;1.00;;;;;;2272641;61;2013;-82
2022/08/08 09:50:08;569258.00;1.90;981.17;2807.00;0.01;5.49;;;;;29.40;1.00;;;;;;2272645;61;1016;-83
2022/08/08 09:52:36;636980.00;2.12;1098.12;37062.00;0.12;64.80;;;;;29.10;1.00;;;;;;2272690;61;1044;-83
2022/08/08 09:55:03;639854.00;2.13;1103.09;21281.00;0.07;37.49;;;;;29.20;1.00;;;;;;2272540;61;1756;-83
2022/08/08 09:57:34;610140.00;2.03;1051.73;30799.00;0.10;53.97;;;;;29.10;1.00;;;;;;2272460;61;1068;-83
2022/08/08 10:00:02;746733.00;2.49;1288.38;89121.00;0.30;154.79;;;;;29.20;1.00;;;;;;2272615;61;1542;-82
2022/08/08 10:02:35;473903.00;1.58;816.91;0.00;0.00;0.62;;;;;29.20;1.00;;;;;;2272619;61;1166;-83
2022/08/08 10:05:12;571667.00;1.91;985.32;35053.00;0.12;61.33;;;;;29.10;1.00;;;;;;2272552;61;1271;-83
2022/08/08 10:07:55;349062.00;1.16;602.25;0.00;0.00;0.62;;;;;29.10;1.00;;;;;;2272521;61;2351;-83
2022/08/08 10:10:25;322452.00;1.07;556.51;5246.00;0.02;9.71;;;;;28.90;1.00;;;;;;2272563;61;1008;-83
2022/08/08 10:12:52;117669.00;0.39;204.06;0.00;0.00;0.62;;;;;28.80;1.00;;;;;;2272494;61;2356;-84
2022/08/08 10:15:20;436816.00;1.46;753.11;90194.00;0.30;156.64;;;;;29.00;1.00;;;;;;2272251;61;1276;-83
2022/08/08 10:17:49;205514.00;0.69;355.41;0.00;0.00;0.62;;;;;28.90;1.00;;;;;;2272430;61;1596;-84
2022/08/08 10:20:18;389251.00;1.30;671.33;0.00;0.00;0.62;;;;;28.80;1.00;;;;;;2272501;61;1121;-82
2022/08/08 10:22:58;671530.00;2.24;1157.90;29579.00;0.10;51.85;;;;;29.20;1.00;;;;;;2272492;61;1102;-83
2022/08/08 10:25:25;122426.00;0.41;212.27;0.00;0.00;0.62;;;;;29.50;1.00;;;;;;2272512;61;1448;-83
2022/08/08 10:27:54;470261.00;1.57;810.64;0.00;0.00;0.62;;;;;29.30;1.00;;;;;;2272473;61;1920;-83
2022/08/08 10:30:22;11306.00;0.04;20.21;0.00;0.00;0.62;;;;;29.30;1.00;;;;;;2272477;61;943;-83
2022/08/08 10:32:55;240500.00;0.80;415.61;0.00;0.00;0.62;;;;;29.20;1.00;;;;;;2272491;61;1106;-83
2022/08/08 10:35:26;203692.00;0.68;352.28;51084.00;0.17;89.06;;;;;28.80;1.00;;;;;;2272491;61;1361;-83
2022/08/08 10:37:56;86149.00;0.29;149.66;0.00;0.00;0.62;;;;;29.40;1.00;;;;;;2272570;61;1083;-84
2022/08/08 10:40:24;170736.00;0.57;295.53;44668.00;0.15;77.96;;;;;30.20;1.00;;;;;;2272454;61;1093;-83
2022/08/08 10:42:56;58955.00;0.20;102.67;0.00;0.00;0.62;;;;;29.60;1.00;;;;;;2272427;61;1055;-83